createdAt,value
2018-09-14T00:01:43.212Z,4.33
2018-09-14T00:04:11.508Z,4.60
2018-09-14T00:06:39.816Z,5.80
2018-09-14T00:09:10.683Z,4.20
2018-09-14T00:11:39.059Z,3.90
2018-09-14T00:14:07.438Z,4.83
2018-09-14T00:16:36.027Z,4.40
2018-09-14T00:19:04.503Z,4.17
2018-09-14T00:21:32.731Z,4.73
2018-09-14T00:24:00.990Z,5.20
2018-09-14T00:26:29.235Z,6.40
2018-09-14T00:28:57.523Z,3.90
2018-09-14T00:31:25.783Z,4.83
2018-09-14T00:33:54.074Z,5.00
2018-09-14T00:36:22.310Z,4.73
2018-09-14T00:38:50.580Z,5.27
2018-09-14T00:41:18.879Z,5.77
2018-09-14T00:43:47.138Z,4.90
2018-09-14T00:46:15.375Z,5.37
2018-09-14T00:48:43.668Z,4.43
2018-09-14T00:51:11.966Z,3.80
2018-09-14T00:53:40.252Z,3.73
2018-09-14T00:56:08.495Z,5.20
2018-09-14T00:58:36.787Z,5.43
2018-09-14T01:01:05.089Z,5.30
2018-09-14T01:03:33.615Z,5.60
2018-09-14T01:06:01.852Z,5.80
2018-09-14T01:08:30.095Z,3.93
2018-09-14T01:10:58.354Z,5.43
2018-09-14T01:13:26.627Z,3.73
2018-09-14T01:15:54.931Z,5.43
2018-09-14T01:18:23.240Z,5.17
2018-09-14T01:20:51.540Z,4.83
2018-09-14T01:23:19.880Z,5.27
2018-09-14T01:25:48.182Z,5.93
2018-09-14T01:28:16.586Z,4.17
2018-09-14T01:30:44.871Z,5.10
2018-09-14T01:33:13.209Z,5.30
2018-09-14T01:35:46.859Z,4.30
2018-09-14T01:38:15.164Z,3.80
2018-09-14T01:40:43.476Z,4.00
2018-09-14T01:43:11.781Z,4.30
2018-09-14T01:45:40.104Z,4.27
2018-09-14T01:48:08.428Z,3.73
2018-09-14T01:50:36.703Z,3.90
2018-09-14T01:53:05.089Z,4.43
2018-09-14T01:55:33.387Z,3.80
2018-09-14T01:58:01.739Z,3.73
2018-09-14T02:00:30.067Z,3.77
2018-09-14T02:02:58.372Z,4.40
2018-09-14T02:05:26.640Z,3.67
2018-09-14T02:07:54.940Z,4.03
2018-09-14T02:10:23.968Z,3.70
2018-09-14T02:12:53.374Z,4.57
2018-09-14T02:15:21.681Z,4.07
2018-09-14T02:17:49.985Z,4.20
2018-09-14T02:20:19.167Z,4.23
2018-09-14T02:22:48.281Z,4.10
2018-09-14T02:25:16.604Z,4.83
2018-09-14T02:27:44.920Z,5.50
2018-09-14T02:30:13.217Z,5.60
2018-09-14T02:32:41.524Z,4.50
2018-09-14T02:35:10.695Z,4.63
2018-09-14T02:37:39.061Z,4.83
2018-09-14T02:40:07.534Z,4.17
2018-09-14T02:42:35.846Z,5.27
2018-09-14T02:45:04.861Z,4.90
2018-09-14T02:47:33.215Z,3.77
2018-09-14T02:50:01.518Z,4.60
2018-09-14T02:52:29.940Z,4.70
2018-09-14T02:54:58.777Z,3.93
2018-09-14T02:57:27.081Z,3.83
2018-09-14T02:59:55.395Z,4.60
2018-09-14T03:02:23.680Z,4.33
2018-09-14T03:04:52.007Z,5.27
2018-09-14T03:07:20.296Z,4.37
2018-09-14T03:09:48.623Z,5.50
2018-09-14T03:12:16.983Z,4.70
2018-09-14T03:14:45.366Z,4.70
2018-09-14T03:17:13.652Z,4.30
2018-09-14T03:19:41.976Z,3.70
2018-09-14T03:22:10.292Z,3.90
2018-09-14T03:24:38.639Z,5.97
2018-09-14T03:27:07.122Z,5.47
2018-09-14T03:29:35.431Z,5.13
2018-09-14T03:32:03.741Z,7.17
2018-09-14T03:34:32.059Z,6.03
2018-09-14T03:37:00.408Z,5.70
2018-09-14T03:39:28.788Z,6.33
2018-09-14T03:41:57.140Z,5.70
2018-09-14T03:44:25.453Z,6.47
2018-09-14T03:46:53.753Z,8.07
2018-09-14T03:49:22.062Z,6.63
2018-09-14T03:51:50.436Z,6.50
2018-09-14T03:54:18.744Z,5.23
2018-09-14T03:56:47.070Z,6.30
2018-09-14T03:59:15.415Z,5.70
2018-09-14T04:01:43.744Z,5.00
2018-09-14T04:04:12.144Z,4.77
2018-09-14T04:06:40.465Z,6.03
2018-09-14T04:09:10.084Z,4.47
2018-09-14T04:11:38.407Z,5.00
2018-09-14T04:14:07.275Z,6.40
2018-09-14T04:16:35.599Z,4.37
2018-09-14T04:19:04.904Z,5.37
2018-09-14T04:21:34.596Z,6.17
2018-09-14T04:24:03.199Z,6.97
2018-09-14T04:26:31.489Z,6.30
2018-09-14T04:29:00.603Z,6.40
2018-09-14T04:31:29.105Z,7.40
2018-09-14T04:33:57.583Z,6.90
2018-09-14T04:36:25.925Z,7.30
2018-09-14T04:38:54.244Z,7.53
2018-09-14T04:41:22.571Z,7.27
2018-09-14T04:43:50.884Z,6.47
2018-09-14T04:46:19.211Z,6.90
2018-09-14T04:48:47.502Z,7.23
2018-09-14T04:51:15.818Z,6.17
2018-09-14T04:53:44.201Z,8.20
2018-09-14T04:56:12.551Z,7.40
2018-09-14T04:58:40.935Z,7.43
2018-09-14T05:01:09.286Z,7.90
2018-09-14T05:03:37.891Z,8.33
2018-09-14T05:06:06.706Z,8.47
2018-09-14T05:08:35.148Z,7.87
2018-09-14T05:11:03.540Z,8.43
2018-09-14T05:13:31.864Z,8.57
2018-09-14T05:16:00.192Z,7.53
2018-09-14T05:18:28.541Z,7.47
2018-09-14T05:20:56.940Z,7.53
2018-09-14T05:23:25.225Z,7.33
2018-09-14T05:25:53.608Z,7.93
2018-09-14T05:28:21.955Z,7.00
2018-09-14T05:30:50.383Z,7.80
2018-09-14T05:33:18.651Z,8.30
2018-09-14T05:35:47.045Z,7.87
2018-09-14T05:38:15.427Z,8.20
2018-09-14T05:40:43.780Z,7.80
2018-09-14T05:43:12.401Z,8.93
2018-09-14T05:45:40.736Z,8.23
2018-09-14T05:48:09.063Z,8.37
2018-09-14T05:50:37.364Z,8.57
2018-09-14T05:53:05.697Z,8.50
2018-09-14T05:55:34.084Z,7.67
2018-09-14T05:58:02.639Z,7.53
2018-09-14T06:00:30.981Z,7.47
2018-09-14T06:02:59.374Z,7.93
2018-09-14T06:05:27.704Z,7.53
2018-09-14T06:07:56.051Z,8.37
2018-09-14T06:10:24.451Z,7.27
2018-09-14T06:12:52.795Z,7.10
2018-09-14T06:15:21.108Z,7.47
2018-09-14T06:17:49.432Z,7.87
2018-09-14T06:20:17.871Z,7.07
2018-09-14T06:22:46.214Z,7.40
2018-09-14T06:25:14.572Z,7.00
2018-09-14T06:27:42.882Z,7.03
2018-09-14T06:30:11.255Z,7.43
2018-09-14T06:32:39.771Z,6.83
2018-09-14T06:35:08.099Z,7.07
2018-09-14T06:37:36.415Z,7.10
2018-09-14T06:40:04.915Z,8.00
2018-09-14T06:42:33.291Z,6.83
2018-09-14T06:45:01.739Z,7.07
2018-09-14T06:47:29.963Z,6.80
2018-09-14T06:49:58.239Z,6.40
2018-09-14T06:52:26.543Z,6.27
2018-09-14T06:54:54.831Z,6.60
2018-09-14T06:57:23.299Z,5.93
2018-09-14T06:59:51.590Z,6.53
2018-09-14T07:02:19.986Z,6.63
2018-09-14T07:04:48.261Z,6.10
2018-09-14T07:07:16.612Z,6.10
2018-09-14T07:09:44.937Z,5.10
2018-09-14T07:12:13.256Z,5.47
2018-09-14T07:14:41.828Z,5.20
2018-09-14T07:17:10.172Z,4.93
2018-09-14T07:19:38.527Z,4.87
2018-09-14T07:22:06.948Z,5.27
2018-09-14T07:24:35.280Z,5.13
2018-09-14T07:27:03.538Z,4.43
2018-09-14T07:29:31.878Z,4.00
2018-09-14T07:32:00.325Z,4.63
2018-09-14T07:34:28.644Z,4.30
2018-09-14T07:36:57.027Z,4.20
2018-09-14T07:39:25.309Z,3.77
2018-09-14T07:41:54.469Z,4.07
2018-09-14T07:44:22.845Z,4.80
2018-09-14T07:46:51.223Z,4.73
2018-09-14T07:49:19.539Z,4.13
2018-09-14T07:51:47.891Z,4.50
2018-09-14T07:54:16.207Z,4.17
2018-09-14T07:56:44.610Z,5.20
2018-09-14T07:59:12.950Z,5.87
2018-09-14T08:01:41.303Z,5.47
2018-09-14T08:04:09.636Z,5.70
2018-09-14T08:06:37.955Z,5.90
2018-09-14T08:09:09.055Z,6.00
2018-09-14T08:11:37.613Z,6.10
2018-09-14T08:14:05.916Z,6.47
2018-09-14T08:16:34.216Z,5.80
2018-09-14T08:19:02.504Z,6.23
2018-09-14T08:21:30.885Z,6.20
2018-09-14T08:23:59.275Z,5.57
2018-09-14T08:26:27.587Z,5.90
2018-09-14T08:28:55.869Z,5.67
2018-09-14T08:31:24.403Z,5.23
2018-09-14T08:33:52.696Z,4.40
2018-09-14T08:36:21.172Z,4.30
2018-09-14T08:38:49.485Z,4.07
2018-09-14T08:41:17.793Z,3.40
2018-09-14T08:43:46.364Z,4.27
2018-09-14T08:46:14.818Z,4.20
2018-09-14T08:48:43.169Z,4.27
2018-09-14T08:51:11.464Z,4.63
2018-09-14T08:53:40.123Z,3.80
2018-09-14T08:56:08.407Z,4.07
2018-09-14T08:58:36.736Z,3.93
2018-09-14T09:01:05.897Z,5.53
2018-09-14T09:03:34.287Z,4.70
2018-09-14T09:06:02.564Z,3.90
2018-09-14T09:08:30.880Z,3.73
2018-09-14T09:10:59.224Z,4.20
2018-09-14T09:13:27.637Z,3.97
2018-09-14T09:15:55.968Z,3.73
2018-09-14T09:18:24.283Z,3.77
2018-09-14T09:20:52.592Z,4.50
2018-09-14T09:23:20.934Z,3.57
2018-09-14T09:25:49.245Z,2.80
2018-09-14T09:28:17.579Z,3.47
2018-09-14T09:30:45.868Z,3.43
2018-09-14T09:33:14.168Z,3.80
2018-09-14T09:35:42.563Z,3.40
2018-09-14T09:38:11.020Z,3.53
2018-09-14T09:40:39.316Z,4.13
2018-09-14T09:43:07.653Z,4.20
2018-09-14T09:45:35.903Z,3.80
2018-09-14T09:48:04.189Z,3.70
2018-09-14T09:50:32.540Z,3.73
2018-09-14T09:53:00.883Z,3.40
2018-09-14T09:55:29.207Z,3.77
2018-09-14T09:57:57.507Z,3.60
2018-09-14T10:00:31.289Z,4.13
2018-09-14T10:03:05.067Z,4.00
2018-09-14T10:05:38.780Z,3.50
2018-09-14T10:08:07.175Z,3.67
2018-09-14T10:10:35.492Z,3.53
2018-09-14T10:13:04.174Z,3.70
2018-09-14T10:15:32.552Z,3.90
2018-09-14T10:18:01.126Z,4.30
2018-09-14T10:20:29.493Z,4.13
2018-09-14T10:22:57.803Z,3.90
2018-09-14T10:25:26.103Z,4.73
2018-09-14T10:27:54.389Z,4.70
2018-09-14T10:30:22.677Z,4.23
2018-09-14T10:32:50.977Z,3.67
2018-09-14T10:35:19.371Z,3.83
2018-09-14T10:37:47.712Z,3.47
2018-09-14T10:40:16.070Z,3.90
2018-09-14T10:42:44.431Z,3.50
2018-09-14T10:45:12.726Z,3.30
2018-09-14T10:47:41.110Z,3.90
2018-09-14T10:50:09.451Z,3.37
2018-09-14T10:52:37.765Z,3.47
2018-09-14T10:55:06.190Z,3.77
2018-09-14T10:57:34.485Z,3.47
2018-09-14T11:00:02.827Z,3.07
2018-09-14T11:02:31.263Z,4.00
2018-09-14T11:04:59.571Z,3.17
2018-09-14T11:07:27.923Z,3.77
2018-09-14T11:09:56.288Z,2.93
2018-09-14T11:12:24.652Z,3.00
2018-09-14T11:14:53.035Z,3.43
2018-09-14T11:17:21.322Z,4.90
2018-09-14T11:19:49.607Z,4.10
2018-09-14T11:22:17.901Z,4.00
2018-09-14T11:24:46.398Z,4.67
2018-09-14T11:27:14.584Z,2.90
2018-09-14T11:29:42.908Z,4.62
2018-09-14T11:32:11.243Z,4.97
2018-09-14T11:34:39.568Z,4.47
2018-09-14T11:37:08.000Z,4.57
2018-09-14T11:39:36.343Z,5.40
2018-09-14T11:42:04.835Z,4.70
2018-09-14T11:44:33.151Z,4.50
2018-09-14T11:47:01.532Z,3.70
2018-09-14T11:49:29.951Z,3.77
2018-09-14T11:51:58.249Z,3.50
2018-09-14T11:54:26.675Z,3.60
2018-09-14T11:56:54.847Z,3.60
2018-09-14T11:59:23.303Z,3.33
2018-09-14T12:01:51.654Z,3.00
2018-09-14T12:04:20.002Z,3.05
2018-09-14T12:06:48.441Z,3.20
2018-09-14T12:09:16.791Z,2.50
2018-09-14T12:11:45.135Z,2.92
2018-09-14T12:14:13.470Z,2.70
2018-09-14T12:16:41.789Z,3.12
2018-09-14T12:19:10.093Z,3.65
2018-09-14T12:21:38.565Z,3.83
2018-09-14T12:24:06.975Z,3.00
2018-09-14T12:26:35.252Z,2.47
2018-09-14T12:29:03.673Z,2.55
2018-09-14T12:31:32.028Z,2.90
2018-09-14T12:34:00.341Z,3.90
2018-09-14T12:36:28.652Z,3.30
2018-09-14T12:38:56.972Z,3.60
2018-09-14T12:41:25.364Z,3.50
2018-09-14T12:43:53.643Z,3.63
2018-09-14T12:46:23.024Z,3.20
2018-09-14T12:48:52.310Z,2.60
2018-09-14T12:51:21.160Z,2.90
2018-09-14T12:53:49.460Z,2.20
2018-09-14T12:56:17.803Z,1.53
2018-09-14T12:58:46.232Z,1.63
2018-09-14T13:01:14.620Z,1.60
2018-09-14T13:03:42.981Z,1.93
2018-09-14T13:06:11.362Z,2.57
2018-09-14T13:08:39.677Z,2.60
2018-09-14T13:11:08.002Z,2.10
2018-09-14T13:13:36.355Z,2.37
2018-09-14T13:16:04.756Z,1.93
2018-09-14T13:18:33.116Z,1.90
2018-09-14T13:21:01.432Z,2.60
2018-09-14T13:23:30.180Z,2.30
2018-09-14T13:25:58.570Z,2.00
2018-09-14T13:28:26.972Z,2.10
2018-09-14T13:30:55.403Z,1.40
2018-09-14T13:33:23.707Z,1.30
2018-09-14T13:35:53.172Z,1.60
2018-09-14T13:38:21.480Z,1.30
2018-09-14T13:40:49.950Z,1.10
2018-09-14T13:43:18.240Z,1.30
2018-09-14T13:45:46.588Z,1.40
2018-09-14T13:48:15.339Z,1.00
2018-09-14T13:50:43.720Z,1.03
2018-09-14T13:53:12.131Z,1.17
2018-09-14T13:55:40.551Z,1.47
2018-09-14T13:58:08.864Z,1.43
2018-09-14T14:00:37.179Z,1.20
2018-09-14T14:03:06.080Z,1.47
2018-09-14T14:05:34.569Z,1.27
2018-09-14T14:08:02.964Z,1.10
2018-09-14T14:10:31.268Z,1.50
2018-09-14T14:12:59.613Z,1.47
2018-09-14T14:15:27.920Z,1.20
2018-09-14T14:17:56.276Z,1.50
2018-09-14T14:20:24.660Z,1.40
2018-09-14T14:22:53.057Z,1.40
2018-09-14T14:25:21.361Z,1.13
2018-09-14T14:27:49.644Z,1.20
2018-09-14T14:30:18.025Z,1.20
2018-09-14T14:32:46.355Z,1.30
2018-09-14T14:35:14.684Z,1.10
2018-09-14T14:37:43.316Z,0.90
2018-09-14T14:40:11.656Z,1.10
2018-09-14T14:42:40.202Z,1.00
2018-09-14T14:45:08.584Z,1.17
2018-09-14T14:47:36.936Z,1.10
2018-09-14T14:50:05.261Z,1.47
2018-09-14T14:52:33.618Z,1.20
2018-09-14T14:55:01.939Z,1.13
2018-09-14T14:57:30.293Z,1.47
2018-09-14T14:59:58.574Z,1.07
2018-09-14T15:02:26.981Z,1.07
2018-09-14T15:04:55.288Z,1.30
2018-09-14T15:07:23.753Z,0.80
2018-09-14T15:09:52.416Z,1.00
2018-09-14T15:12:20.791Z,1.53
2018-09-14T15:14:49.069Z,1.13
2018-09-14T15:17:17.407Z,1.30
2018-09-14T15:19:45.712Z,1.30
2018-09-14T15:22:14.032Z,1.33
2018-09-14T15:24:42.536Z,1.50
2018-09-14T15:27:11.049Z,2.27
2018-09-14T15:29:39.444Z,3.93
2018-09-14T15:32:07.792Z,1.23
2018-09-14T15:34:36.147Z,2.10
2018-09-14T15:37:04.472Z,1.77
2018-09-14T15:39:32.747Z,1.80
2018-09-14T15:42:01.147Z,1.90
2018-09-14T15:44:29.456Z,1.63
2018-09-14T15:46:57.803Z,1.80
2018-09-14T15:49:26.271Z,2.00
2018-09-14T15:51:54.530Z,1.80
2018-09-14T15:54:22.967Z,1.47
2018-09-14T15:56:51.356Z,1.80
2018-09-14T15:59:19.643Z,1.70
2018-09-14T16:01:47.964Z,1.90
2018-09-14T16:04:16.300Z,1.90
2018-09-14T16:06:44.684Z,1.53
2018-09-14T16:09:12.999Z,1.97
2018-09-14T16:11:41.381Z,1.70
2018-09-14T16:14:09.711Z,1.77
2018-09-14T16:16:38.067Z,1.40
2018-09-14T16:19:06.497Z,1.20
2018-09-14T16:21:34.827Z,1.90
2018-09-14T16:24:03.167Z,1.80
2018-09-14T16:26:31.529Z,1.90
2018-09-14T16:29:00.007Z,1.57
2018-09-14T16:31:28.315Z,1.57
2018-09-14T16:33:56.616Z,1.57
2018-09-14T16:36:25.004Z,1.57
2018-09-14T16:38:53.435Z,2.07
2018-09-14T16:41:21.748Z,1.93
2018-09-14T16:43:50.069Z,1.60
2018-09-14T16:46:18.464Z,1.53
2018-09-14T16:48:46.749Z,1.87
2018-09-14T16:51:15.268Z,1.30
2018-09-14T16:53:43.611Z,1.50
2018-09-14T16:56:12.123Z,1.60
2018-09-14T16:58:41.433Z,2.77
2018-09-14T17:01:09.916Z,1.20
2018-09-14T17:03:38.477Z,1.47
2018-09-14T17:06:06.863Z,1.10
2018-09-14T17:08:35.207Z,1.40
2018-09-14T17:11:03.508Z,1.60
2018-09-14T17:13:31.851Z,1.93
2018-09-14T17:16:00.180Z,1.53
2018-09-14T17:18:28.523Z,1.67
2018-09-14T17:20:56.837Z,1.50
2018-09-14T17:23:26.218Z,1.77
2018-09-14T17:25:54.511Z,1.80
2018-09-14T17:28:22.805Z,1.40
2018-09-14T17:30:51.579Z,1.90
2018-09-14T17:33:19.897Z,1.60
2018-09-14T17:35:48.199Z,1.60
2018-09-14T17:38:16.562Z,1.90
2018-09-14T17:40:44.834Z,1.70
2018-09-14T17:43:13.202Z,1.67
2018-09-14T17:45:41.717Z,1.50
2018-09-14T17:48:10.025Z,1.67
2018-09-14T17:50:38.424Z,1.60
2018-09-14T17:53:06.828Z,1.40
2018-09-14T17:55:35.177Z,1.70
2018-09-14T17:58:03.509Z,1.47
2018-09-14T18:00:31.816Z,1.90
2018-09-14T18:03:00.153Z,1.67
2018-09-14T18:05:28.491Z,1.83
2018-09-14T18:07:56.906Z,1.60
2018-09-14T18:10:25.212Z,1.40
2018-09-14T18:12:53.563Z,1.80
2018-09-14T18:15:21.864Z,2.23
2018-09-14T18:17:50.360Z,1.50
2018-09-14T18:20:18.712Z,1.60
2018-09-14T18:22:47.032Z,1.43
2018-09-14T18:25:15.364Z,1.50
2018-09-14T18:27:44.206Z,1.73
2018-09-14T18:30:12.471Z,2.10
2018-09-14T18:32:41.200Z,1.87
2018-09-14T18:35:09.503Z,2.13
2018-09-14T18:37:37.999Z,2.10
2018-09-14T18:40:06.360Z,2.10
2018-09-14T18:42:34.640Z,1.80
2018-09-14T18:45:03.016Z,2.17
2018-09-14T18:47:31.349Z,2.53
2018-09-14T18:49:59.702Z,2.43
2018-09-14T18:52:28.091Z,2.03
2018-09-14T18:54:56.405Z,2.60
2018-09-14T18:57:24.737Z,2.47
2018-09-14T18:59:53.047Z,2.80
2018-09-14T19:02:21.322Z,2.77
2018-09-14T19:04:49.630Z,2.73
2018-09-14T19:07:18.059Z,3.00
2018-09-14T19:09:46.425Z,2.90
2018-09-14T19:12:14.981Z,2.93
2018-09-14T19:14:43.399Z,3.77
2018-09-14T19:17:11.815Z,3.40
2018-09-14T19:19:40.165Z,3.93
2018-09-14T19:22:08.683Z,3.50
2018-09-14T19:24:37.058Z,4.37
2018-09-14T19:27:05.318Z,3.70
2018-09-14T19:29:33.667Z,3.50
2018-09-14T19:32:02.013Z,3.67
2018-09-14T19:34:30.355Z,3.23
2018-09-14T19:36:58.660Z,3.00
2018-09-14T19:39:26.988Z,3.83
2018-09-14T19:41:55.308Z,3.03
2018-09-14T19:44:23.656Z,3.17
2018-09-14T19:46:51.946Z,3.63
2018-09-14T19:49:20.254Z,4.47
2018-09-14T19:51:48.568Z,5.03
2018-09-14T19:54:16.939Z,5.10
2018-09-14T19:56:45.358Z,5.10
2018-09-14T19:59:13.853Z,5.20
2018-09-14T20:01:42.409Z,4.43
2018-09-14T20:04:10.707Z,4.97
2018-09-14T20:06:39.031Z,4.63
2018-09-14T20:09:12.695Z,4.20
2018-09-14T20:11:41.452Z,6.00
2018-09-14T20:14:12.700Z,5.20
2018-09-14T20:16:43.782Z,4.47
2018-09-14T20:19:12.422Z,4.40
2018-09-14T20:21:40.921Z,4.70
2018-09-14T20:24:09.260Z,4.50
2018-09-14T20:26:37.668Z,5.37
2018-09-14T20:29:06.069Z,4.57
2018-09-14T20:31:34.515Z,4.60
2018-09-14T20:34:03.065Z,4.93
2018-09-14T20:36:31.375Z,4.87
2018-09-14T20:38:59.741Z,5.10
2018-09-14T20:41:28.065Z,5.17
2018-09-14T20:43:56.616Z,5.63
2018-09-14T20:46:26.064Z,5.40
2018-09-14T20:48:54.698Z,5.47
2018-09-14T20:51:24.223Z,5.30
2018-09-14T20:53:59.542Z,5.90
2018-09-14T20:56:27.978Z,6.50
2018-09-14T20:58:56.358Z,6.60
2018-09-14T21:01:27.010Z,6.40
2018-09-14T21:03:55.714Z,6.17
2018-09-14T21:06:24.043Z,4.90
2018-09-14T21:08:52.368Z,4.40
2018-09-14T21:11:20.717Z,4.67
2018-09-14T21:13:50.856Z,5.30
2018-09-14T21:16:19.348Z,5.20
2018-09-14T21:18:47.701Z,5.97
2018-09-14T21:21:16.069Z,5.23
2018-09-14T21:23:44.450Z,5.17
2018-09-14T21:26:12.920Z,4.80
2018-09-14T21:28:41.320Z,4.83
2018-09-14T21:31:09.706Z,4.80
2018-09-14T21:33:38.009Z,4.83
2018-09-14T21:36:06.352Z,4.63
2018-09-14T21:38:34.659Z,3.73
2018-09-14T21:41:02.979Z,4.13
2018-09-14T21:43:31.300Z,4.30
2018-09-14T21:45:59.592Z,3.93
2018-09-14T21:48:27.920Z,3.93
2018-09-14T21:50:56.268Z,3.67
2018-09-14T21:53:24.660Z,3.53
2018-09-14T21:55:52.944Z,3.80
2018-09-14T21:58:21.263Z,3.90
2018-09-14T22:00:54.828Z,3.70
2018-09-14T22:03:23.135Z,3.50
2018-09-14T22:05:51.455Z,3.80
2018-09-14T22:08:19.804Z,4.17
2018-09-14T22:10:48.164Z,3.57
2018-09-14T22:13:16.616Z,3.93
2018-09-14T22:15:45.174Z,4.27
2018-09-14T22:18:13.555Z,4.43
2018-09-14T22:20:41.980Z,4.67
2018-09-14T22:23:10.383Z,4.70
2018-09-14T22:25:38.731Z,4.60
2018-09-14T22:28:07.036Z,5.37
2018-09-14T22:30:35.350Z,5.33
2018-09-14T22:33:03.892Z,5.57
2018-09-14T22:35:32.182Z,5.27
2018-09-14T22:38:00.511Z,4.50
2018-09-14T22:40:28.970Z,4.33
2018-09-14T22:42:57.580Z,5.00
2018-09-14T22:45:26.506Z,4.93
2018-09-14T22:47:55.510Z,4.87
2018-09-14T22:50:24.264Z,4.77
2018-09-14T22:52:55.695Z,4.17
2018-09-14T22:55:27.884Z,4.60
2018-09-14T22:57:56.852Z,4.33
2018-09-14T23:00:30.713Z,4.03
2018-09-14T23:02:59.121Z,4.30
2018-09-14T23:05:27.413Z,4.10
2018-09-14T23:07:55.968Z,4.70
2018-09-14T23:10:24.513Z,4.60
2018-09-14T23:12:52.984Z,4.53
2018-09-14T23:15:21.292Z,4.33
2018-09-14T23:17:49.682Z,4.50
2018-09-14T23:20:18.008Z,4.40
2018-09-14T23:22:46.315Z,4.33
2018-09-14T23:25:14.632Z,4.33
2018-09-14T23:27:42.961Z,4.67
2018-09-14T23:30:12.907Z,4.83
2018-09-14T23:32:41.352Z,4.80
2018-09-14T23:35:10.817Z,4.20
2018-09-14T23:37:39.268Z,4.20
2018-09-14T23:40:08.392Z,4.43
2018-09-14T23:42:37.051Z,4.03
2018-09-14T23:45:05.938Z,4.50
2018-09-14T23:47:34.477Z,4.20
2018-09-14T23:50:03.395Z,4.73
2018-09-14T23:52:31.880Z,5.47
2018-09-14T23:55:00.340Z,4.57
2018-09-14T23:57:28.908Z,5.13
2018-09-14T23:59:57.918Z,4.00
